Time;durP1;ratioP1;P1;durP2;ratioP2;P2;SDS_P1;SDS_P2;PMS_P1;PMS_P2;Temp;Humidity;BMP_temperature;BMP_pressure;BME280_temperature;BME280_humidity;BME280_pressure;Samples;Min_cycle;Max_cycle;Signal;HPM_P1;HPM_P2
2023/11/24 00:00:31;;;;;;;1.40;1.30;;;;;;;6.14;100.00;98602.94;5113826;28;20213;-81
2023/11/24 00:02:58;;;;;;;1.20;1.10;;;;;;;6.30;100.00;98604.25;5104014;28;20195;-79
2023/11/24 00:05:25;;;;;;;2.27;1.33;;;;;;;6.45;100.00;98593.28;5100358;28;20219;-79
2023/11/24 00:07:52;;;;;;;1.20;1.03;;;;;;;6.57;100.00;98596.88;5098252;28;20226;-79
2023/11/24 00:10:19;;;;;;;1.70;1.20;;;;;;;6.70;100.00;98606.56;5103884;28;20269;-80
2023/11/24 00:12:46;;;;;;;1.20;1.10;;;;;;;6.85;100.00;98601.72;5094160;28;20188;-79
2023/11/24 00:15:13;;;;;;;1.40;1.30;;;;;;;6.87;100.00;98604.97;5086577;28;20228;-79
2023/11/24 00:17:39;;;;;;;1.23;1.07;;;;;;;6.83;100.00;98591.28;5101572;28;20239;-81
2023/11/24 00:20:10;;;;;;;1.23;1.13;;;;;;;7.16;100.00;98582.94;5091394;28;20200;-79
2023/11/24 00:22:37;;;;;;;1.67;1.33;;;;;;;7.17;100.00;98587.22;5080776;28;20231;-80
2023/11/24 00:25:05;;;;;;;1.73;1.30;;;;;;;7.33;100.00;98599.94;5089454;28;20193;-79
2023/11/24 00:27:31;;;;;;;1.70;1.00;;;;;;;7.48;100.00;98602.22;5080496;28;20189;-80
2023/11/24 00:29:58;;;;;;;1.20;1.10;;;;;;;7.60;100.00;98611.09;5075856;28;20207;-79
2023/11/24 00:32:25;;;;;;;1.10;1.00;;;;;;;7.66;100.00;98612.03;5076946;28;20664;-79
2023/11/24 00:34:52;;;;;;;1.90;1.20;;;;;;;7.87;100.00;98606.22;5072339;28;20229;-80
2023/11/24 00:37:19;;;;;;;1.23;1.13;;;;;;;7.93;100.00;98598.09;5087435;28;20199;-80
2023/11/24 00:39:49;;;;;;;1.27;1.17;;;;;;;7.89;100.00;98607.59;5079911;28;20249;-80
2023/11/24 00:42:16;;;;;;;1.20;1.00;;;;;;;7.94;100.00;98628.25;5081392;28;20201;-79
2023/11/24 00:44:43;;;;;;;1.10;1.00;;;;;;;8.04;100.00;98611.69;5105157;28;20268;-80
2023/11/24 00:47:10;;;;;;;1.10;1.00;;;;;;;8.02;100.00;98606.63;5109475;28;20184;-80
2023/11/24 00:49:39;;;;;;;0.80;0.80;;;;;;;8.11;100.00;98605.25;5103483;28;20232;-79
2023/11/24 00:52:06;;;;;;;0.90;0.90;;;;;;;8.05;100.00;98600.81;5094115;28;20252;-79
2023/11/24 00:54:33;;;;;;;1.73;1.10;;;;;;;8.03;100.00;98596.72;5103928;28;20208;-80
2023/11/24 00:57:00;;;;;;;1.30;0.80;;;;;;;8.04;100.00;98587.69;5102383;28;20192;-80
2023/11/24 00:59:27;;;;;;;1.10;1.00;;;;;;;8.16;100.00;98588.56;5108870;28;20218;-80
2023/11/24 01:01:54;;;;;;;1.30;1.00;;;;;;;8.12;100.00;98582.84;5098314;28;20223;-79
2023/11/24 01:04:21;;;;;;;0.83;0.83;;;;;;;8.08;100.00;98584.34;5100797;28;20661;-78
2023/11/24 01:06:48;;;;;;;0.80;0.80;;;;;;;8.18;100.00;98583.78;5066957;28;20210;-80
2023/11/24 01:09:15;;;;;;;0.70;0.70;;;;;;;8.08;100.00;98586.19;5104654;28;20189;-80
2023/11/24 01:11:42;;;;;;;0.90;0.90;;;;;;;8.09;100.00;98571.81;5104077;28;20270;-78
2023/11/24 01:14:09;;;;;;;1.27;0.63;;;;;;;8.09;100.00;98567.28;5094257;28;20216;-80
2023/11/24 01:16:35;;;;;;;0.87;0.87;;;;;;;8.10;100.00;98558.25;5096955;28;20189;-79
2023/11/24 01:19:03;;;;;;;0.80;0.80;;;;;;;8.25;100.00;98544.47;5089335;28;20196;-80
2023/11/24 01:21:29;;;;;;;0.93;0.90;;;;;;;8.33;100.00;98522.81;5078855;28;20188;-79
2023/11/24 01:24:01;;;;;;;0.80;0.80;;;;;;;8.37;100.00;98503.44;5062968;28;20202;-79
2023/11/24 01:26:29;;;;;;;1.50;0.90;;;;;;;8.59;100.00;98510.84;5089402;28;20280;-79
2023/11/24 01:28:56;;;;;;;0.60;0.60;;;;;;;8.61;100.00;98496.22;5093137;28;20199;-80
2023/11/24 01:31:23;;;;;;;1.37;0.90;;;;;;;8.81;100.00;98477.16;5074020;28;20192;-80
2023/11/24 01:33:49;;;;;;;1.23;0.87;;;;;;;8.91;100.00;98455.19;5085719;28;20205;-81
2023/11/24 01:36:17;;;;;;;1.07;0.97;;;;;;;8.93;100.00;98424.50;5083256;28;20191;-79
2023/11/24 01:38:44;;;;;;;1.73;1.00;;;;;;;8.90;100.00;98422.31;5082853;28;20200;-81
2023/11/24 01:41:11;;;;;;;1.17;1.00;;;;;;;8.87;100.00;98448.66;5084499;28;20263;-78
2023/11/24 01:43:37;;;;;;;1.23;0.83;;;;;;;8.98;100.00;98415.78;5097472;28;20203;-79
2023/11/24 01:46:05;;;;;;;0.80;0.80;;;;;;;8.92;100.00;98404.16;5105550;28;20252;-79
2023/11/24 01:48:32;;;;;;;0.87;0.83;;;;;;;8.80;100.00;98414.09;5104432;28;20266;-81
2023/11/24 01:50:59;;;;;;;1.00;0.90;;;;;;;8.95;100.00;98402.91;5092111;28;20200;-80
2023/11/24 01:53:26;;;;;;;1.60;0.80;;;;;;;8.92;100.00;98401.50;5095215;28;20322;-80
2023/11/24 01:55:52;;;;;;;0.70;0.70;;;;;;;8.87;100.00;98403.25;5078225;28;20246;-80
2023/11/24 01:58:19;;;;;;;1.73;0.77;;;;;;;8.88;100.00;98383.53;5097765;28;20200;-80
2023/11/24 02:00:46;;;;;;;0.83;0.83;;;;;;;8.79;100.00;98377.75;5095166;28;20220;-81
2023/11/24 02:03:13;;;;;;;0.70;0.70;;;;;;;8.88;100.00;98364.81;5102201;28;20188;-80
2023/11/24 02:05:40;;;;;;;1.37;0.90;;;;;;;8.85;100.00;98358.09;5099271;28;20219;-79
2023/11/24 02:08:07;;;;;;;0.70;0.67;;;;;;;8.73;100.00;98347.47;5093625;28;20257;-80
2023/11/24 02:10:34;;;;;;;0.97;0.90;;;;;;;8.87;100.00;98333.81;5094907;28;20188;-80
2023/11/24 02:13:01;;;;;;;1.10;0.80;;;;;;;8.80;100.00;98333.97;5100999;28;20260;-80
2023/11/24 02:15:29;;;;;;;1.17;0.97;;;;;;;8.86;100.00;98314.34;5076413;28;20292;-81
2023/11/24 02:17:56;;;;;;;0.83;0.60;;;;;;;8.87;100.00;98301.75;5093863;28;20195;-79
2023/11/24 02:20:25;;;;;;;0.80;0.77;;;;;;;8.79;100.00;98306.47;5093056;28;20199;-79
2023/11/24 02:22:52;;;;;;;0.67;0.67;;;;;;;8.87;100.00;98315.13;5088859;28;20223;-80
2023/11/24 02:25:19;;;;;;;1.17;0.70;;;;;;;8.80;100.00;98281.38;5092013;28;20730;-79
2023/11/24 02:27:46;;;;;;;0.83;0.80;;;;;;;8.80;100.00;98283.25;5088028;28;20193;-79
2023/11/24 02:30:13;;;;;;;1.33;0.67;;;;;;;8.80;100.00;98278.72;5090123;28;20580;-78
2023/11/24 02:32:39;;;;;;;1.63;0.63;;;;;;;8.87;100.00;98275.06;5093345;28;20196;-80
2023/11/24 02:35:09;;;;;;;1.43;0.50;;;;;;;8.91;100.00;98268.22;5084897;28;20309;-78
2023/11/24 02:37:36;;;;;;;0.63;0.63;;;;;;;8.86;100.00;98255.56;5081326;28;20680;-79
2023/11/24 02:40:04;;;;;;;0.60;0.50;;;;;;;8.97;100.00;98269.88;5066891;28;20200;-80
2023/11/24 02:42:31;;;;;;;0.40;0.40;;;;;;;8.83;100.00;98269.38;5095545;28;20853;-79
2023/11/24 02:44:58;;;;;;;0.50;0.50;;;;;;;8.77;100.00;98268.50;5107580;28;20273;-79
2023/11/24 02:47:25;;;;;;;0.60;0.60;;;;;;;8.70;100.00;98264.38;5105852;28;20249;-81
2023/11/24 02:49:52;;;;;;;0.83;0.50;;;;;;;8.59;100.00;98270.56;5085332;28;20284;-79
2023/11/24 02:52:20;;;;;;;1.77;0.70;;;;;;;8.47;100.00;98267.97;5100444;28;20733;-81
2023/11/24 02:54:47;;;;;;;0.63;0.50;;;;;;;8.38;100.00;98282.72;5084241;28;20598;-80
2023/11/24 02:57:14;;;;;;;0.90;0.53;;;;;;;8.28;100.00;98272.63;5100575;28;20656;-78
2023/11/24 02:59:41;;;;;;;0.50;0.50;;;;;;;8.15;100.00;98272.09;5101685;28;20329;-79
2023/11/24 03:02:07;;;;;;;0.60;0.50;;;;;;;7.99;100.00;98265.66;5100511;28;20223;-79
2023/11/24 03:04:34;;;;;;;0.60;0.60;;;;;;;7.93;100.00;98262.06;5099382;28;20200;-80
2023/11/24 03:07:01;;;;;;;0.60;0.60;;;;;;;7.84;100.00;98260.81;5100156;28;20222;-79
2023/11/24 03:09:28;;;;;;;1.50;0.47;;;;;;;7.73;100.00;98258.97;5099665;28;20254;-79
2023/11/24 03:11:54;;;;;;;1.33;0.50;;;;;;;7.74;100.00;98257.94;5088649;28;20295;-78
2023/11/24 03:14:22;;;;;;;1.60;0.50;;;;;;;7.73;100.00;98235.00;5076824;28;20219;-79
2023/11/24 03:16:50;;;;;;;0.73;0.50;;;;;;;7.64;100.00;98215.06;5091916;27;20693;-78
2023/11/24 03:19:17;;;;;;;0.83;0.30;;;;;;;7.58;100.00;98204.53;5101830;27;20196;-79
2023/11/24 03:21:44;;;;;;;0.50;0.40;;;;;;;7.56;100.00;98214.63;5102608;28;20192;-79
2023/11/24 03:24:11;;;;;;;1.97;0.60;;;;;;;7.59;100.00;98206.97;5091037;28;20233;-78
2023/11/24 03:26:38;;;;;;;1.27;0.23;;;;;;;7.52;100.00;98217.75;5095470;28;20200;-77
2023/11/24 03:29:05;;;;;;;0.93;0.40;;;;;;;7.49;100.00;98212.88;5091785;28;20657;-77
2023/11/24 03:31:32;;;;;;;0.37;0.30;;;;;;;7.58;100.00;98217.84;5093385;28;20644;-81
2023/11/24 03:34:02;;;;;;;0.30;0.30;;;;;;;7.40;100.00;98216.97;5101278;28;20647;-78
2023/11/24 03:36:29;;;;;;;1.80;0.30;;;;;;;7.45;100.00;98206.41;5085522;28;20288;-78
2023/11/24 03:38:56;;;;;;;0.60;0.30;;;;;;;7.41;100.00;98212.44;5112562;28;20188;-77
2023/11/24 03:41:23;;;;;;;1.30;0.30;;;;;;;7.34;100.00;98219.72;5108937;28;20192;-79
2023/11/24 03:43:49;;;;;;;0.70;0.30;;;;;;;7.28;100.00;98228.69;5095047;28;20287;-78
2023/11/24 03:46:16;;;;;;;0.23;0.20;;;;;;;7.24;100.00;98216.84;5104468;28;20195;-78
2023/11/24 03:48:43;;;;;;;0.30;0.30;;;;;;;7.22;100.00;98227.75;5097391;28;20224;-79
2023/11/24 03:51:10;;;;;;;0.30;0.30;;;;;;;7.28;100.00;98226.00;5101955;28;20212;-78
2023/11/24 03:53:37;;;;;;;0.13;0.13;;;;;;;7.28;100.00;98226.00;5101933;28;20250;-76
2023/11/24 03:56:06;;;;;;;0.47;0.30;;;;;;;7.28;100.00;98210.81;5099126;28;20215;-81
2023/11/24 03:58:33;;;;;;;0.30;0.20;;;;;;;7.27;100.00;98206.56;5098946;28;20191;-79
2023/11/24 04:01:00;;;;;;;0.63;0.30;;;;;;;7.30;100.00;98200.75;5101544;28;20239;-78
2023/11/24 04:03:27;;;;;;;0.30;0.30;;;;;;;7.31;100.00;98196.22;5080614;28;20223;-78
2023/11/24 04:05:54;;;;;;;0.50;0.30;;;;;;;7.35;100.00;98205.38;5104467;28;20205;-77
2023/11/24 04:08:20;;;;;;;0.40;0.40;;;;;;;7.38;100.00;98208.38;5104039;28;20203;-78
2023/11/24 04:10:47;;;;;;;0.37;0.30;;;;;;;7.32;100.00;98197.84;5092796;28;20657;-78
2023/11/24 04:13:14;;;;;;;0.90;0.40;;;;;;;7.29;100.00;98212.44;5097217;28;20200;-79
2023/11/24 04:15:40;;;;;;;0.30;0.30;;;;;;;7.25;100.00;98197.97;5096720;28;20215;-83
2023/11/24 04:18:07;;;;;;;0.30;0.30;;;;;;;7.26;100.00;98199.59;5099520;28;20185;-78
2023/11/24 04:20:34;;;;;;;0.50;0.50;;;;;;;7.23;100.00;98191.25;5109880;28;20187;-80
2023/11/24 04:23:01;;;;;;;0.30;0.30;;;;;;;7.24;100.00;98203.50;5106410;28;20202;-78
2023/11/24 04:25:28;;;;;;;1.07;0.50;;;;;;;7.24;100.00;98188.34;5102069;28;20200;-78
2023/11/24 04:27:55;;;;;;;0.30;0.30;;;;;;;7.21;100.00;98198.66;5095547;28;20188;-77
2023/11/24 04:30:22;;;;;;;0.43;0.30;;;;;;;7.19;100.00;98187.41;5105338;28;20648;-77
2023/11/24 04:32:49;;;;;;;0.40;0.40;;;;;;;7.15;100.00;98188.94;5104627;28;20223;-77
2023/11/24 04:35:16;;;;;;;1.07;0.30;;;;;;;7.23;100.00;98186.72;5109151;28;20281;-77
2023/11/24 04:37:43;;;;;;;0.20;0.20;;;;;;;7.29;100.00;98164.47;5106976;28;20229;-78
2023/11/24 04:40:10;;;;;;;0.40;0.20;;;;;;;7.30;100.00;98183.94;5112425;28;20229;-78
2023/11/24 04:42:38;;;;;;;0.60;0.30;;;;;;;7.25;100.00;98165.19;5098147;28;20679;-76
2023/11/24 04:45:06;;;;;;;0.20;0.20;;;;;;;7.25;100.00;98178.50;5108068;28;20204;-78
2023/11/24 04:47:34;;;;;;;0.10;0.10;;;;;;;7.31;100.00;98162.41;5101539;28;20212;-80
2023/11/24 04:50:00;;;;;;;0.57;0.30;;;;;;;7.26;100.00;98150.81;5109990;28;20227;-78
2023/11/24 04:52:27;;;;;;;0.20;0.20;;;;;;;7.27;100.00;98139.94;5112911;28;20223;-79
2023/11/24 04:54:54;;;;;;;0.20;0.20;;;;;;;7.41;100.00;98117.34;5103732;28;20620;-77
2023/11/24 04:57:21;;;;;;;0.10;0.10;;;;;;;7.42;100.00;98126.91;5112456;28;20195;-78
2023/11/24 04:59:47;;;;;;;0.13;0.13;;;;;;;7.40;100.00;98126.38;5112330;28;20187;-78
2023/11/24 05:02:14;;;;;;;0.20;0.20;;;;;;;7.54;100.00;98124.25;5112025;28;20207;-77
2023/11/24 05:04:41;;;;;;;0.50;0.30;;;;;;;7.90;100.00;98104.38;5112237;28;20195;-77
2023/11/24 05:07:08;;;;;;;0.17;0.17;;;;;;;7.99;100.00;98116.28;5087001;28;20192;-77
2023/11/24 05:09:36;;;;;;;0.60;0.30;;;;;;;8.14;100.00;98105.09;5106654;28;20199;-77
2023/11/24 05:12:03;;;;;;;0.50;0.40;;;;;;;8.22;100.00;98094.81;5097894;28;20192;-77
2023/11/24 05:14:30;;;;;;;0.60;0.50;;;;;;;8.27;100.00;98094.09;5101688;28;20222;-80
2023/11/24 05:16:57;;;;;;;0.40;0.30;;;;;;;8.35;100.00;98080.41;5091274;28;20285;-77
2023/11/24 05:19:24;;;;;;;0.63;0.50;;;;;;;8.50;100.00;98090.50;5088792;28;20292;-77
2023/11/24 05:21:50;;;;;;;0.43;0.43;;;;;;;8.56;100.00;98076.19;5089087;28;20231;-80
2023/11/24 05:24:17;;;;;;;0.40;0.40;;;;;;;8.76;100.00;98079.97;5088252;28;20195;-78
2023/11/24 05:26:44;;;;;;;0.50;0.50;;;;;;;8.78;100.00;98071.69;5097469;28;20192;-78
2023/11/24 05:29:11;;;;;;;0.27;0.27;;;;;;;8.78;100.00;98059.16;5109115;28;20191;-77
2023/11/24 05:31:37;;;;;;;0.40;0.40;;;;;;;8.69;100.00;98068.63;5101568;28;20185;-77
2023/11/24 05:34:05;;;;;;;0.40;0.40;;;;;;;8.73;100.00;98092.97;5105703;28;20202;-78
2023/11/24 05:36:33;;;;;;;0.93;0.50;;;;;;;8.77;100.00;98092.25;5105967;28;20218;-79
2023/11/24 05:39:00;;;;;;;0.40;0.40;;;;;;;8.79;100.00;98089.34;5108368;28;20187;-80
2023/11/24 05:41:27;;;;;;;0.70;0.50;;;;;;;8.81;100.00;98082.72;5108433;28;20199;-77
2023/11/24 05:43:53;;;;;;;0.63;0.50;;;;;;;8.93;100.00;98061.22;5104112;28;20253;-79
2023/11/24 05:46:20;;;;;;;0.60;0.60;;;;;;;8.95;100.00;98085.84;5095683;28;20253;-78
2023/11/24 05:48:48;;;;;;;0.73;0.50;;;;;;;8.96;100.00;98089.31;5090869;28;20277;-78
2023/11/24 05:51:14;;;;;;;0.57;0.57;;;;;;;8.90;100.00;98090.31;5085489;28;20192;-78
2023/11/24 05:53:41;;;;;;;1.17;0.90;;;;;;;8.96;100.00;98092.00;5084453;28;20197;-79
2023/11/24 05:56:09;;;;;;;0.80;0.80;;;;;;;8.86;100.00;98084.66;5086275;28;20227;-79
2023/11/24 05:58:36;;;;;;;0.60;0.60;;;;;;;8.83;100.00;98095.81;5086638;28;20258;-79
2023/11/24 06:01:03;;;;;;;0.70;0.70;;;;;;;8.80;100.00;98106.97;5090844;28;20216;-79
2023/11/24 06:03:30;;;;;;;0.97;0.90;;;;;;;8.81;100.00;98095.25;5089014;28;20188;-80
2023/11/24 06:05:57;;;;;;;0.80;0.70;;;;;;;8.79;100.00;98094.69;5102193;28;20200;-80
2023/11/24 06:08:24;;;;;;;0.83;0.73;;;;;;;8.89;100.00;98096.69;5083912;28;20196;-78
2023/11/24 06:10:51;;;;;;;0.80;0.80;;;;;;;8.88;100.00;98085.19;5113839;28;20648;-79
2023/11/24 06:13:18;;;;;;;0.83;0.80;;;;;;;8.82;100.00;98095.00;5115529;28;20668;-78
2023/11/24 06:15:44;;;;;;;0.63;0.63;;;;;;;8.82;100.00;98105.66;5113784;28;20252;-80
2023/11/24 06:18:11;;;;;;;0.70;0.70;;;;;;;8.87;100.00;98083.56;5102965;28;20199;-79
2023/11/24 06:20:38;;;;;;;0.70;0.70;;;;;;;8.74;100.00;98105.28;5091054;28;20196;-79
2023/11/24 06:23:05;;;;;;;1.10;1.00;;;;;;;8.59;100.00;98158.44;5108802;28;20211;-80
2023/11/24 06:25:31;;;;;;;1.87;0.77;;;;;;;8.37;100.00;98193.84;5088369;28;20203;-82
2023/11/24 06:27:58;;;;;;;0.60;0.50;;;;;;;7.86;100.00;98200.06;5112398;28;20206;-79
2023/11/24 06:30:25;;;;;;;0.53;0.50;;;;;;;7.12;100.00;98213.38;5071504;28;20201;-79
2023/11/24 06:32:51;;;;;;;0.50;0.40;;;;;;;6.90;100.00;98211.28;5111559;28;20663;-80
2023/11/24 06:35:18;;;;;;;1.40;0.30;;;;;;;6.55;100.00;98216.53;5110408;28;20598;-84
2023/11/24 06:37:45;;;;;;;0.50;0.30;;;;;;;6.42;100.00;98222.06;5097890;28;20721;-80
2023/11/24 06:40:13;;;;;;;0.23;0.20;;;;;;;6.29;100.00;98226.75;5107642;28;20233;-79
2023/11/24 06:42:41;;;;;;;0.93;0.60;;;;;;;6.15;100.00;98229.59;5089355;28;20200;-79
2023/11/24 06:45:09;;;;;;;1.33;0.40;;;;;;;5.98;100.00;98243.72;5089156;28;20195;-78
2023/11/24 06:47:42;;;;;;;0.20;0.20;;;;;;;5.89;100.00;98235.25;5097256;28;20237;-81
2023/11/24 06:50:12;;;;;;;2.00;0.20;;;;;;;5.84;100.00;98251.00;5097755;28;20275;-79
2023/11/24 06:52:39;;;;;;;0.20;0.20;;;;;;;5.74;100.00;98253.38;5084694;28;20207;-79
2023/11/24 06:55:07;;;;;;;0.90;0.30;;;;;;;5.67;100.00;98256.13;5092049;28;20277;-79
2023/11/24 06:57:33;;;;;;;0.50;0.20;;;;;;;5.59;100.00;98252.94;5089854;28;20195;-80
2023/11/24 07:00:00;;;;;;;1.83;0.30;;;;;;;5.53;100.00;98261.78;5091549;28;20195;-81
2023/11/24 07:02:28;;;;;;;0.70;0.13;;;;;;;5.44;100.00;98255.97;5090853;28;20196;-80
2023/11/24 07:04:54;;;;;;;0.67;0.20;;;;;;;5.38;100.00;98250.69;5099064;28;20191;-78
2023/11/24 07:07:21;;;;;;;0.97;0.30;;;;;;;5.34;100.00;98247.69;5097098;28;20203;-79
2023/11/24 07:09:48;;;;;;;0.20;0.20;;;;;;;5.35;100.00;98240.53;5086766;28;20201;-80
2023/11/24 07:12:17;;;;;;;0.67;0.23;;;;;;;5.29;100.00;98269.59;5103603;28;20230;-80
2023/11/24 07:14:45;;;;;;;0.50;0.30;;;;;;;5.28;100.00;98265.31;5098675;28;20197;-78
2023/11/24 07:17:12;;;;;;;0.93;0.20;;;;;;;5.29;100.00;98269.59;5104686;28;20215;-78
2023/11/24 07:19:40;;;;;;;1.20;0.27;;;;;;;5.11;100.00;98250.97;5094256;28;20199;-80
2023/11/24 07:22:08;;;;;;;0.57;0.20;;;;;;;5.05;100.00;98235.91;5093411;28;20197;-80
2023/11/24 07:24:38;;;;;;;0.83;0.30;;;;;;;5.05;100.00;98233.25;5103973;28;20212;-79
2023/11/24 07:27:05;;;;;;;0.50;0.20;;;;;;;5.05;100.00;98225.28;5098468;28;20203;-79
2023/11/24 07:29:35;;;;;;;0.50;0.20;;;;;;;5.00;100.00;98217.16;5095899;28;20188;-82
2023/11/24 07:32:02;;;;;;;0.93;0.20;;;;;;;4.98;100.00;98208.63;5102992;28;20242;-81
2023/11/24 07:34:32;;;;;;;1.40;0.40;;;;;;;5.02;100.00;98219.59;5093995;28;20192;-79
2023/11/24 07:37:02;;;;;;;0.30;0.30;;;;;;;5.09;100.00;98221.16;5072999;28;20224;-80
2023/11/24 07:39:30;;;;;;;0.20;0.20;;;;;;;5.15;100.00;98222.94;5094250;28;20241;-81
2023/11/24 07:41:58;;;;;;;0.83;0.40;;;;;;;5.15;100.00;98224.78;5097032;28;20200;-80
2023/11/24 07:44:31;;;;;;;0.87;0.30;;;;;;;5.19;100.00;98223.31;5081783;28;20207;-80
2023/11/24 07:46:58;;;;;;;0.40;0.27;;;;;;;5.23;100.00;98221.84;5075457;28;20657;-80
2023/11/24 07:49:25;;;;;;;0.80;0.20;;;;;;;5.21;100.00;98223.91;5089403;28;20723;-80
2023/11/24 07:51:52;;;;;;;0.10;0.10;;;;;;;5.25;100.00;98241.84;5088191;28;20194;-82
2023/11/24 07:54:19;;;;;;;1.03;0.37;;;;;;;5.23;100.00;98224.50;5091497;28;20206;-80
2023/11/24 07:56:46;;;;;;;1.27;0.13;;;;;;;5.36;100.00;98228.88;5092078;28;20233;-81
2023/11/24 07:59:13;;;;;;;0.10;0.10;;;;;;;5.40;100.00;98230.06;5081733;28;20239;-80
2023/11/24 08:01:40;;;;;;;0.20;0.20;;;;;;;5.52;100.00;98241.56;5078031;28;20224;-80
2023/11/24 08:04:07;;;;;;;0.43;0.20;;;;;;;5.52;100.00;98244.22;5097437;28;20196;-79
2023/11/24 08:06:34;;;;;;;1.00;0.77;;;;;;;5.58;100.00;98230.06;5093017;28;20196;-80
2023/11/24 08:09:03;;;;;;;1.70;0.20;;;;;;;5.58;100.00;98240.69;5097724;28;20656;-79
2023/11/24 08:11:31;;;;;;;0.40;0.30;;;;;;;5.69;100.00;98235.44;5097615;28;20297;-79
2023/11/24 08:13:58;;;;;;;0.30;0.30;;;;;;;5.80;100.00;98241.88;5089341;28;20676;-80
2023/11/24 08:16:25;;;;;;;0.40;0.40;;;;;;;5.97;100.00;98248.22;5098667;28;20718;-79
2023/11/24 08:18:52;;;;;;;0.57;0.23;;;;;;;6.07;100.00;98239.72;5088671;28;20677;-79
2023/11/24 08:21:19;;;;;;;0.60;0.30;;;;;;;6.17;100.00;98235.50;5090906;28;20201;-81
2023/11/24 08:23:46;;;;;;;0.93;0.20;;;;;;;6.25;100.00;98225.59;5096283;28;20625;-81
2023/11/24 08:26:21;;;;;;;0.63;0.40;;;;;;;6.29;100.00;98232.91;5084751;28;20200;-80
2023/11/24 08:28:48;;;;;;;0.43;0.20;;;;;;;6.39;100.00;98219.06;5099270;28;20275;-80
2023/11/24 08:31:19;;;;;;;1.20;0.30;;;;;;;6.53;100.00;98220.47;5087408;28;20188;-79
2023/11/24 08:33:46;;;;;;;0.93;0.47;;;;;;;6.58;100.00;98216.06;5110716;28;20226;-80
2023/11/24 08:36:13;;;;;;;0.83;0.30;;;;;;;6.67;100.00;98205.13;5106296;28;20212;-79
2023/11/24 08:38:40;;;;;;;0.33;0.23;;;;;;;6.70;100.00;98218.78;5098955;28;20266;-81
2023/11/24 08:41:13;;;;;;;0.60;0.20;;;;;;;6.62;100.00;98219.13;5103392;28;20195;-81
2023/11/24 08:43:56;;;;;;;0.60;0.40;;;;;;;6.63;100.00;98215.38;5097330;28;20288;-84
2023/11/24 08:46:24;;;;;;;0.20;0.20;;;;;;;6.62;100.00;98193.28;5088464;28;20313;-78
2023/11/24 08:48:51;;;;;;;0.80;0.23;;;;;;;6.70;100.00;98194.81;5079406;28;20239;-79
2023/11/24 08:51:17;;;;;;;1.50;0.40;;;;;;;6.70;100.00;98213.44;5090635;28;20196;-80
2023/11/24 08:53:44;;;;;;;0.43;0.30;;;;;;;6.73;100.00;98212.16;5101868;28;20192;-79
2023/11/24 08:56:11;;;;;;;0.57;0.30;;;;;;;6.64;100.00;98222.34;5094707;28;20213;-79
2023/11/24 08:58:37;;;;;;;0.60;0.40;;;;;;;6.78;100.00;98217.63;5099476;28;20656;-81
2023/11/24 09:01:05;;;;;;;0.30;0.30;;;;;;;6.75;100.00;98202.13;5102542;28;20212;-80
2023/11/24 09:03:32;;;;;;;0.33;0.30;;;;;;;6.85;100.00;98205.84;5087816;28;20187;-79
2023/11/24 09:06:00;;;;;;;0.40;0.30;;;;;;;7.08;100.00;98224.50;5105272;28;20291;-79
2023/11/24 09:08:27;;;;;;;0.60;0.40;;;;;;;7.05;100.00;98213.47;5095764;27;20707;-79
2023/11/24 09:10:54;;;;;;;1.93;0.77;;;;;;;7.40;100.00;98206.31;5099485;28;20195;-80
2023/11/24 09:13:21;;;;;;;1.47;0.70;;;;;;;7.51;100.00;98215.34;5092319;28;20184;-79
2023/11/24 09:15:49;;;;;;;0.60;0.50;;;;;;;7.43;100.00;98226.31;5092445;28;20655;-79
2023/11/24 09:18:16;;;;;;;0.30;0.30;;;;;;;7.63;100.00;98200.13;5091557;28;20192;-80
2023/11/24 09:20:45;;;;;;;0.70;0.40;;;;;;;7.94;100.00;98182.88;5092069;28;20196;-81
2023/11/24 09:23:12;;;;;;;1.03;0.50;;;;;;;8.15;100.00;98181.41;5104252;28;20196;-82
2023/11/24 09:25:40;;;;;;;0.70;0.40;;;;;;;8.20;100.00;98184.16;5095708;28;20278;-79
2023/11/24 09:28:06;;;;;;;0.73;0.40;;;;;;;8.15;100.00;98168.06;5080854;28;20661;-81
2023/11/24 09:30:34;;;;;;;0.70;0.50;;;;;;;8.06;100.00;98154.31;5092505;28;20234;-79
2023/11/24 09:33:04;;;;;;;0.40;0.40;;;;;;;8.19;100.00;98146.00;5089680;28;20652;-80
2023/11/24 09:35:31;;;;;;;1.80;0.33;;;;;;;8.59;100.00;98167.25;5082988;28;20192;-79
2023/11/24 09:37:58;;;;;;;1.03;0.47;;;;;;;8.80;100.00;98171.88;5089546;28;20253;-80
2023/11/24 09:40:26;;;;;;;1.07;0.40;;;;;;;9.05;100.00;98163.44;5079032;28;20199;-79
2023/11/24 09:42:52;;;;;;;0.80;0.30;;;;;;;9.27;100.00;98158.97;5098320;28;20197;-80
2023/11/24 09:45:22;;;;;;;1.13;0.30;;;;;;;9.26;100.00;98154.66;5097166;28;20282;-79
2023/11/24 09:47:49;;;;;;;1.10;0.37;;;;;;;9.42;100.00;98136.97;5096397;28;20265;-80
2023/11/24 09:50:24;;;;;;;0.83;0.37;;;;;;;9.26;100.00;98103.88;5062782;28;20196;-80
2023/11/24 09:52:54;;;;;;;0.40;0.40;;;;;;;9.32;100.00;98078.03;5097262;28;20196;-79
2023/11/24 09:55:22;;;;;;;0.63;0.27;;;;;;;9.24;100.00;98081.13;5092154;28;20187;-79
2023/11/24 09:57:53;;;;;;;1.17;0.40;;;;;;;9.29;100.00;98092.69;5096829;28;20276;-80
2023/11/24 10:00:20;;;;;;;0.80;0.40;;;;;;;9.45;100.00;98092.88;5094302;28;20225;-80
2023/11/24 10:02:47;;;;;;;1.30;0.40;;;;;;;9.63;100.00;98088.03;5102126;28;20188;-78
2023/11/24 10:05:18;;;;;;;0.30;0.20;;;;;;;9.60;100.00;98085.84;5101338;28;20420;-79
2023/11/24 10:07:47;;;;;;;1.33;0.30;;;;;;;9.55;100.00;98068.94;5103457;28;20191;-82
2023/11/24 10:10:28;;;;;;;0.30;0.20;;;;;;;9.55;100.00;98053.72;5108291;28;20604;-80
2023/11/24 10:13:01;;;;;;;0.30;0.20;;;;;;;9.86;100.00;98035.28;5110148;28;20219;-80
2023/11/24 10:15:30;;;;;;;0.70;0.30;;;;;;;10.03;100.00;98049.38;5107347;28;20273;-80
2023/11/24 10:17:58;;;;;;;0.93;0.30;;;;;;;9.95;100.00;98028.41;5112719;28;20211;-80
2023/11/24 10:20:28;;;;;;;0.80;0.23;;;;;;;9.75;100.00;98028.25;5093068;28;20682;-78
2023/11/24 10:22:58;;;;;;;0.97;0.30;;;;;;;9.77;100.00;98029.59;5108724;28;20187;-80
2023/11/24 10:25:25;;;;;;;0.80;0.40;;;;;;;9.87;100.00;98019.00;5110955;28;20248;-80
2023/11/24 10:27:59;;;;;;;0.50;0.40;;;;;;;9.98;100.00;98010.00;5112672;28;20245;-78
2023/11/24 10:30:26;;;;;;;0.67;0.30;;;;;;;9.66;100.00;98004.59;5110745;28;20210;-80
2023/11/24 10:32:53;;;;;;;0.70;0.40;;;;;;;9.45;100.00;97985.97;5111087;28;20200;-80
2023/11/24 10:35:20;;;;;;;1.27;0.30;;;;;;;9.39;100.00;97970.91;5085312;28;20207;-78
2023/11/24 10:37:48;;;;;;;0.10;0.10;;;;;;;9.39;100.00;97968.25;5109866;28;20223;-79
2023/11/24 10:40:17;;;;;;;0.70;0.33;;;;;;;9.30;100.00;97965.22;5103129;28;20659;-82
2023/11/24 10:42:47;;;;;;;0.67;0.30;;;;;;;9.16;100.00;97946.09;5104697;28;20195;-79
2023/11/24 10:45:19;;;;;;;1.07;0.40;;;;;;;9.13;100.00;97970.66;5104856;28;20203;-81
2023/11/24 10:48:02;;;;;;;0.60;0.47;;;;;;;9.25;100.00;97973.19;5093345;28;20686;-78
2023/11/24 10:50:29;;;;;;;1.00;0.30;;;;;;;9.50;100.00;97967.28;5107781;28;20199;-78
2023/11/24 10:53:00;;;;;;;1.13;0.30;;;;;;;9.53;100.00;97959.56;5111947;28;20655;-79
2023/11/24 10:55:30;;;;;;;0.60;0.27;;;;;;;9.47;100.00;97959.78;5109054;28;20235;-79
2023/11/24 10:57:57;;;;;;;0.37;0.30;;;;;;;9.53;100.00;97948.06;5103794;28;20234;-79
2023/11/24 11:00:24;;;;;;;0.50;0.30;;;;;;;9.61;100.00;97969.03;5096437;28;20200;-80
2023/11/24 11:02:52;;;;;;;0.90;0.30;;;;;;;9.77;100.00;97949.38;5094278;28;20184;-79
2023/11/24 11:06:07;;;;;;;0.30;0.20;;;;;;;10.04;100.00;97935.91;5113324;28;20249;-80
2023/11/24 11:08:39;;;;;;;0.77;0.23;;;;;;;9.93;100.00;97927.03;5093735;28;20245;-80
2023/11/24 11:11:18;;;;;;;1.50;0.33;;;;;;;10.17;100.00;97956.94;5089555;28;20196;-80
2023/11/24 11:13:45;;;;;;;0.40;0.23;;;;;;;10.25;100.00;97947.63;5088486;28;20580;-82
2023/11/24 11:16:15;;;;;;;0.47;0.40;;;;;;;10.54;100.00;97932.81;5097758;28;20268;-80
2023/11/24 11:18:42;;;;;;;0.83;0.30;;;;;;;10.52;100.00;97927.69;5113182;28;20195;-78
2023/11/24 11:21:13;;;;;;;0.40;0.30;;;;;;;10.54;100.00;97933.56;5112783;28;20202;-78
2023/11/24 11:23:41;;;;;;;0.67;0.30;;;;;;;10.58;100.00;97934.69;5116869;28;20664;-78
2023/11/24 11:26:08;;;;;;;0.13;0.13;;;;;;;10.66;100.00;97908.47;5108267;28;20673;-81
2023/11/24 11:28:39;;;;;;;1.33;0.30;;;;;;;10.93;100.00;97917.13;5110194;28;20202;-78
2023/11/24 11:31:32;;;;;;;0.67;0.30;;;;;;;10.52;100.00;97892.06;5103408;28;20211;-82
2023/11/24 11:34:12;;;;;;;1.20;0.30;;;;;;;10.47;100.00;97919.63;5093657;28;20274;-80
2023/11/24 11:36:54;;;;;;;0.70;0.30;;;;;;;10.47;100.00;97921.50;5108165;28;20207;-81